Airfield :
LOGIN :

Register | Disclaimer

   EN    FR    IT 

 










Legend :    VFR   Marginal VFR   IFR   Intensive IFR   Very Intensive IFR
Visi :
Ceiling :
>= 8 km
>= 3000ft
5 to 8 km
1000 to 3000 ft
1500m to 5 km
500 to 1000 ft
800 to 1500m
200 to 500 ft
< 800m
< 200 ft
Symbols :   Thunderstorms  Fog  Heavy snow  Heavy precipitations  Wind > 20 kt
SIGMETs :     Misc.  Thunderstorms  Icing  Turbulence  Mountain Waves  Volcanic Ashes






- Airport Elevation : 53 ft
- IATA code : HAM


EDDH - Hamburg

CURRENT METAR :
  • 060320Z 23003KT 190V260 9999 FEW018 BKN039 M01/M02 Q1030 NOSIG

EXPIRED METARs :
  • 060250Z VRB01KT 9999 FEW022 BKN032 M01/M02 Q1031 NOSIG
  • 060220Z VRB02KT CAVOK M03/M04 Q1031 NOSIG
  • 060150Z VRB02KT CAVOK M02/M04 Q1031 NOSIG
  • 060120Z 26004KT CAVOK M01/M03 Q1031 NOSIG
  • 060050Z 26005KT CAVOK M01/M03 Q1031 NOSIG

TAF TAF EDDH
Valid from the 06 at 00:00 until the 07 at 06:00 UTC


052300Z 0600/0706 25004KT 9999 FEW030
BECMG 0605/0608 28009KT
TEMPO 0605/0612 BKN013
PROB30
TEMPO 0606/0611 BKN009



MET'MAP, your aeronautical weather chart ! - Copyright ORBIFLY December 2007 - Disclaimer

ORBIFLY MET'MAP TEAM :

Programming & Development : Alexandra Zaïnal
Concept & original design : Baudouin d'Aumeries
Assistance for programming : Marc-Olivier Méhu
Technical & hardware support : Manuel Goepfert

Contact : metmap@orbifly.com




SOURCES & CREDITS :

   NOAA